Time;durP1;ratioP1;P1;durP2;ratioP2;P2;SDS_P1;SDS_P2;PMS_P1;PMS_P2;Temp;Humidity;BMP_temperature;BMP_pressure;BME280_temperature;BME280_humidity;BME280_pressure;Samples;Min_cycle;Max_cycle;Signal;HPM_P1;HPM_P2
2021/06/20 00:00:30;;;;;;;4.00;1.58;;;26.00;60.50;;;;;;5114528;28;20030;-59
2021/06/20 00:02:56;;;;;;;5.18;1.58;;;26.10;60.40;;;;;;5097097;28;20503;-61
2021/06/20 00:05:28;;;;;;;2.97;1.40;;;26.10;60.40;;;;;;5115305;28;20027;-62
2021/06/20 00:07:54;;;;;;;2.22;1.60;;;26.10;60.50;;;;;;5115778;28;20088;-63
2021/06/20 00:10:22;;;;;;;2.38;1.48;;;26.10;60.20;;;;;;5114638;28;20422;-63
2021/06/20 00:12:48;;;;;;;6.43;1.85;;;26.10;60.20;;;;;;5114465;28;20015;-64
2021/06/20 00:15:15;;;;;;;4.53;1.95;;;26.10;60.20;;;;;;5113990;28;20466;-63
2021/06/20 00:17:41;;;;;;;4.47;1.90;;;26.10;60.10;;;;;;5115437;28;20068;-59
2021/06/20 00:20:07;;;;;;;2.92;1.65;;;26.10;60.10;;;;;;5113735;28;20016;-62
2021/06/20 00:22:33;;;;;;;5.63;2.30;;;26.10;60.10;;;;;;5113962;28;20365;-61
2021/06/20 00:24:59;;;;;;;2.83;1.70;;;26.20;60.20;;;;;;5114011;28;20027;-61
2021/06/20 00:27:24;;;;;;;3.28;1.63;;;26.20;61.30;;;;;;5096545;28;20027;-61
2021/06/20 00:29:50;;;;;;;2.35;1.67;;;26.20;61.50;;;;;;5113731;28;20027;-61
2021/06/20 00:32:16;;;;;;;1.83;1.58;;;26.30;61.20;;;;;;5096558;28;20395;-61
2021/06/20 00:34:42;;;;;;;4.75;1.90;;;26.30;61.50;;;;;;5113535;28;20023;-60
2021/06/20 00:37:08;;;;;;;4.65;1.80;;;26.40;61.70;;;;;;5115085;28;20042;-60
2021/06/20 00:39:34;;;;;;;3.45;1.48;;;26.40;61.60;;;;;;5115072;28;20027;-60
2021/06/20 00:41:59;;;;;;;2.40;1.83;;;26.40;61.80;;;;;;5096951;28;20106;-60
2021/06/20 00:44:25;;;;;;;4.10;2.10;;;26.50;61.80;;;;;;5115111;28;20534;-60
2021/06/20 00:46:52;;;;;;;4.15;1.88;;;26.50;61.80;;;;;;5096240;28;20514;-62
2021/06/20 00:49:18;;;;;;;3.17;1.65;;;26.50;61.90;;;;;;5113152;28;20069;-60
2021/06/20 00:51:44;;;;;;;2.75;1.70;;;26.50;61.90;;;;;;5096199;28;20564;-60
2021/06/20 00:54:09;;;;;;;2.63;1.45;;;26.50;61.60;;;;;;5113431;28;20030;-60
2021/06/20 00:56:35;;;;;;;2.97;1.40;;;26.50;61.70;;;;;;5112880;28;20393;-60
2021/06/20 00:59:02;;;;;;;3.20;1.70;;;26.50;61.50;;;;;;5113487;28;20093;-60
2021/06/20 01:01:30;;;;;;;3.00;1.60;;;26.50;61.50;;;;;;5096611;28;20016;-57
2021/06/20 01:03:56;;;;;;;2.95;1.70;;;26.50;61.40;;;;;;5114166;28;20023;-61
2021/06/20 01:06:22;;;;;;;3.30;1.60;;;26.50;61.30;;;;;;5096460;28;20016;-61
2021/06/20 01:08:48;;;;;;;2.58;1.48;;;26.50;61.10;;;;;;5112924;28;20387;-61
2021/06/20 01:11:13;;;;;;;4.32;1.50;;;26.60;61.20;;;;;;5096390;28;20106;-61
2021/06/20 01:13:39;;;;;;;3.20;1.65;;;26.60;61.10;;;;;;5113109;28;20049;-61
2021/06/20 01:16:05;;;;;;;2.47;1.35;;;26.60;61.10;;;;;;5095775;28;20516;-61
2021/06/20 01:18:30;;;;;;;4.15;1.40;;;26.60;60.80;;;;;;5112740;28;20020;-61
2021/06/20 01:20:56;;;;;;;3.58;1.50;;;26.60;61.10;;;;;;5114263;28;20484;-61
2021/06/20 01:23:22;;;;;;;2.90;1.30;;;26.60;60.90;;;;;;5096170;28;20118;-61
2021/06/20 01:25:49;;;;;;;1.85;1.50;;;26.60;60.90;;;;;;5112674;28;20552;-61
2021/06/20 01:28:15;;;;;;;3.33;1.25;;;26.60;60.80;;;;;;5112520;28;20387;-61
2021/06/20 01:30:45;;;;;;;2.38;1.30;;;26.70;60.80;;;;;;5114237;28;20020;-60
2021/06/20 01:33:11;;;;;;;3.35;1.45;;;26.70;61.60;;;;;;5114095;28;20030;-59
2021/06/20 01:35:37;;;;;;;1.48;1.20;;;26.70;60.80;;;;;;5112806;28;20019;-62
2021/06/20 01:38:03;;;;;;;2.83;1.30;;;26.70;60.90;;;;;;5095369;28;20122;-60
2021/06/20 01:40:29;;;;;;;3.15;1.10;;;26.70;60.80;;;;;;5095351;28;20064;-62
2021/06/20 01:42:55;;;;;;;2.63;1.17;;;26.70;61.00;;;;;;5095882;28;20027;-63
2021/06/20 01:45:21;;;;;;;1.98;1.20;;;26.70;61.00;;;;;;5113861;28;20018;-60
2021/06/20 01:47:48;;;;;;;2.58;1.40;;;26.70;60.90;;;;;;5112366;28;20020;-62
2021/06/20 01:50:15;;;;;;;1.52;1.30;;;26.70;61.00;;;;;;5113754;28;20023;-62
2021/06/20 01:52:41;;;;;;;2.33;1.27;;;26.70;61.00;;;;;;5112479;28;20540;-59
2021/06/20 01:55:08;;;;;;;4.18;1.48;;;26.70;61.10;;;;;;5113528;27;20020;-63
2021/06/20 01:57:36;;;;;;;3.30;1.40;;;26.70;61.00;;;;;;5112395;28;20020;-64
2021/06/20 02:00:05;;;;;;;2.78;1.63;;;26.80;61.00;;;;;;5111225;28;20031;-64
2021/06/20 02:02:30;;;;;;;2.00;1.30;;;26.80;61.20;;;;;;5113568;28;20047;-63
2021/06/20 02:04:56;;;;;;;2.33;1.20;;;26.80;61.10;;;;;;5113569;28;20526;-64
2021/06/20 02:07:23;;;;;;;3.60;1.45;;;26.80;60.90;;;;;;5111908;28;20111;-63
2021/06/20 02:09:48;;;;;;;2.53;1.30;;;26.80;60.80;;;;;;5112268;28;20056;-63
2021/06/20 02:12:14;;;;;;;3.20;1.35;;;26.80;60.50;;;;;;5113320;28;20061;-65
2021/06/20 02:14:40;;;;;;;2.22;1.30;;;26.80;60.50;;;;;;5112133;28;20080;-63
2021/06/20 02:17:27;;;;;;;3.45;1.20;;;26.80;60.40;;;;;;5111514;28;20139;-64
2021/06/20 02:19:54;;;;;;;2.50;1.20;;;26.80;60.10;;;;;;5112104;28;20525;-65
2021/06/20 02:22:20;;;;;;;2.58;1.13;;;26.80;60.10;;;;;;5111973;28;20031;-62
2021/06/20 02:24:46;;;;;;;1.80;1.23;;;26.80;60.20;;;;;;5113260;28;20020;-61
2021/06/20 02:27:13;;;;;;;2.97;1.60;;;26.80;60.30;;;;;;5111901;28;20050;-63
2021/06/20 02:29:40;;;;;;;1.52;1.10;;;26.80;60.10;;;;;;5095148;28;20157;-62
2021/06/20 02:32:06;;;;;;;2.47;1.40;;;26.80;60.00;;;;;;5111497;28;20120;-61
2021/06/20 02:34:32;;;;;;;2.72;1.23;;;26.80;60.00;;;;;;5112942;28;20027;-61
2021/06/20 02:36:58;;;;;;;1.33;1.23;;;26.80;60.00;;;;;;5094388;28;20114;-61
2021/06/20 02:39:23;;;;;;;2.83;1.20;;;26.80;60.10;;;;;;5112944;28;20077;-61
2021/06/20 02:41:50;;;;;;;2.92;1.42;;;26.80;60.00;;;;;;5113027;28;20434;-61
2021/06/20 02:44:17;;;;;;;1.95;1.23;;;26.80;60.00;;;;;;5112863;28;20019;-63
2021/06/20 02:46:43;;;;;;;2.85;1.60;;;26.80;59.90;;;;;;5112817;28;20102;-64
2021/06/20 02:49:09;;;;;;;3.63;1.52;;;26.80;59.90;;;;;;5111797;28;20077;-63
2021/06/20 02:51:35;;;;;;;1.17;1.10;;;26.80;59.80;;;;;;5112674;28;20027;-63
2021/06/20 02:54:01;;;;;;;4.35;1.65;;;26.80;59.90;;;;;;5112782;28;20448;-64
2021/06/20 02:56:26;;;;;;;1.73;1.38;;;26.80;59.80;;;;;;5110996;28;20024;-63
2021/06/20 02:58:52;;;;;;;1.65;1.45;;;26.80;59.80;;;;;;5111403;28;20073;-62
2021/06/20 03:01:18;;;;;;;2.00;1.40;;;26.80;59.90;;;;;;5111348;28;20468;-64
2021/06/20 03:03:44;;;;;;;3.70;1.75;;;26.80;59.80;;;;;;5111027;28;20038;-64
2021/06/20 03:06:10;;;;;;;2.65;1.40;;;26.80;59.80;;;;;;5112632;28;20540;-64
2021/06/20 03:08:36;;;;;;;2.97;1.33;;;26.80;59.80;;;;;;5112625;28;20088;-62
2021/06/20 03:11:02;;;;;;;2.10;1.17;;;26.80;59.70;;;;;;5111182;28;20027;-60
2021/06/20 03:13:28;;;;;;;4.78;1.38;;;26.80;59.50;;;;;;5111211;28;20023;-61
2021/06/20 03:15:55;;;;;;;2.65;1.15;;;26.80;59.60;;;;;;5110422;28;20051;-62
2021/06/20 03:20:52;;;;;;;3.55;1.70;;;26.80;58.80;;;;;;5105417;27;20452;-59
2021/06/20 03:23:18;;;;;;;1.60;1.30;;;26.80;59.40;;;;;;5088227;28;20073;-60
2021/06/20 03:25:43;;;;;;;3.88;1.42;;;26.80;59.20;;;;;;5089489;28;20451;-61
2021/06/20 03:28:09;;;;;;;1.75;1.30;;;26.90;58.90;;;;;;5089370;28;20031;-61
2021/06/20 03:30:35;;;;;;;4.65;1.35;;;26.90;58.70;;;;;;5089485;28;20070;-61
2021/06/20 03:33:01;;;;;;;3.05;1.23;;;27.00;58.50;;;;;;5089061;28;20078;-60
2021/06/20 03:35:28;;;;;;;4.32;1.30;;;27.00;58.40;;;;;;5089367;28;20031;-62
2021/06/20 03:37:53;;;;;;;3.38;1.45;;;27.00;58.30;;;;;;5089273;28;20043;-61
2021/06/20 03:40:19;;;;;;;2.88;1.30;;;27.00;58.30;;;;;;5088820;28;20021;-61
2021/06/20 03:42:45;;;;;;;2.05;1.42;;;27.00;58.20;;;;;;5089162;28;20027;-60
2021/06/20 03:45:11;;;;;;;1.75;1.40;;;27.00;58.40;;;;;;5087506;28;20121;-60
2021/06/20 03:47:37;;;;;;;4.43;1.25;;;27.00;58.00;;;;;;5070707;28;20020;-59
2021/06/20 03:50:03;;;;;;;2.25;1.13;;;27.00;58.20;;;;;;5089024;28;20069;-61
2021/06/20 03:52:29;;;;;;;5.68;1.50;;;26.90;58.00;;;;;;5088971;28;20031;-62
2021/06/20 03:54:55;;;;;;;2.15;1.33;;;26.90;58.00;;;;;;5087591;28;20021;-61
2021/06/20 03:57:21;;;;;;;2.72;1.25;;;26.90;57.90;;;;;;5087578;28;20024;-61
2021/06/20 03:59:48;;;;;;;2.30;1.20;;;26.90;57.80;;;;;;5070209;28;20020;-62
2021/06/20 04:02:13;;;;;;;4.70;1.55;;;26.90;57.80;;;;;;5088822;28;20024;-64
2021/06/20 04:04:40;;;;;;;2.65;1.40;;;26.90;57.70;;;;;;5087572;28;20036;-62
2021/06/20 04:07:07;;;;;;;3.22;1.10;;;26.90;57.60;;;;;;5087092;28;20395;-59
2021/06/20 04:09:33;;;;;;;3.90;1.02;;;26.90;57.50;;;;;;5088611;28;20055;-60
2021/06/20 04:11:59;;;;;;;4.18;1.40;;;26.90;57.40;;;;;;5088366;28;20060;-62
2021/06/20 04:14:25;;;;;;;1.88;1.08;;;26.90;57.30;;;;;;5086993;28;20055;-62
2021/06/20 04:16:50;;;;;;;2.65;1.00;;;26.90;57.20;;;;;;5088549;28;20020;-58
2021/06/20 04:19:16;;;;;;;2.40;1.17;;;26.90;57.20;;;;;;5088072;28;20059;-57
2021/06/20 04:21:42;;;;;;;3.80;1.10;;;26.90;57.10;;;;;;5086855;28;20495;-59
2021/06/20 04:24:08;;;;;;;3.47;1.17;;;26.90;57.00;;;;;;5088045;28;20032;-64
2021/06/20 04:26:34;;;;;;;1.00;0.90;;;26.90;57.00;;;;;;5086935;28;20127;-59
2021/06/20 04:29:00;;;;;;;3.50;1.05;;;26.90;57.00;;;;;;5086933;28;20257;-60
2021/06/20 04:31:25;;;;;;;3.38;0.90;;;26.90;56.90;;;;;;5077923;28;20660;-60
2021/06/20 04:33:51;;;;;;;4.00;1.10;;;26.90;57.00;;;;;;5074585;28;20028;-60
2021/06/20 04:36:17;;;;;;;1.20;0.98;;;26.90;56.80;;;;;;5056668;28;20481;-61
2021/06/20 04:38:43;;;;;;;3.55;1.20;;;26.90;56.70;;;;;;5072968;28;20119;-60
2021/06/20 04:41:13;;;;;;;1.08;0.90;;;26.80;56.60;;;;;;5056474;28;20025;-60
2021/06/20 04:43:55;;;;;;;2.60;1.20;;;26.90;57.50;;;;;;5072962;28;20078;-58
2021/06/20 04:46:23;;;;;;;1.38;1.02;;;26.80;56.60;;;;;;5073494;28;20028;-60
2021/06/20 04:48:50;;;;;;;2.67;1.10;;;26.90;56.50;;;;;;5074027;28;20455;-59
2021/06/20 04:51:16;;;;;;;1.55;1.00;;;26.90;56.30;;;;;;5072748;28;20025;-60
2021/06/20 04:53:42;;;;;;;2.70;1.10;;;26.90;56.30;;;;;;5073109;28;20405;-58
2021/06/20 04:56:07;;;;;;;2.80;1.15;;;26.80;56.30;;;;;;5073059;28;20451;-58
2021/06/20 04:58:33;;;;;;;2.78;1.20;;;26.90;56.20;;;;;;5074155;28;20032;-59
2021/06/20 05:00:59;;;;;;;1.80;1.17;;;26.90;56.10;;;;;;5072934;28;20028;-58
2021/06/20 05:03:25;;;;;;;1.85;0.80;;;27.00;56.00;;;;;;5072566;28;20481;-61
2021/06/20 05:05:50;;;;;;;2.42;1.23;;;27.00;55.90;;;;;;5074131;28;20025;-60
2021/06/20 05:08:16;;;;;;;2.15;1.40;;;27.10;55.80;;;;;;5074067;28;20119;-60
2021/06/20 05:10:42;;;;;;;2.50;1.10;;;27.10;55.70;;;;;;5073865;28;20067;-60
2021/06/20 05:13:07;;;;;;;3.00;1.10;;;27.20;55.70;;;;;;5073977;28;20107;-62
2021/06/20 05:15:33;;;;;;;2.58;1.00;;;27.20;55.70;;;;;;5072286;28;20016;-61
2021/06/20 05:17:59;;;;;;;1.35;1.00;;;27.30;55.80;;;;;;5073952;28;20027;-58
2021/06/20 05:20:24;;;;;;;1.70;1.00;;;27.30;55.60;;;;;;5071902;28;20090;-61
2021/06/20 05:22:50;;;;;;;2.67;1.05;;;27.30;56.50;;;;;;5072539;28;20078;-61
2021/06/20 05:25:16;;;;;;;4.05;1.30;;;27.40;55.70;;;;;;5072493;28;20028;-62
2021/06/20 05:27:42;;;;;;;2.45;1.00;;;27.40;55.50;;;;;;5073763;28;20029;-60
2021/06/20 05:30:08;;;;;;;4.15;1.00;;;27.40;55.30;;;;;;5073703;28;20013;-61
2021/06/20 05:32:34;;;;;;;2.05;1.00;;;27.50;55.50;;;;;;5073658;28;20123;-60
2021/06/20 05:34:59;;;;;;;2.55;1.20;;;27.50;55.40;;;;;;5073649;28;20670;-60
2021/06/20 05:37:25;;;;;;;2.88;1.00;;;27.60;55.30;;;;;;5055262;28;20032;-60
2021/06/20 05:39:51;;;;;;;3.55;1.30;;;27.60;55.30;;;;;;5073452;28;20032;-61
2021/06/20 05:42:16;;;;;;;2.05;1.20;;;27.60;55.10;;;;;;5072530;28;20017;-59
2021/06/20 05:44:42;;;;;;;2.70;1.00;;;27.60;55.20;;;;;;5072011;28;20075;-61
2021/06/20 05:47:08;;;;;;;2.22;1.02;;;27.60;55.10;;;;;;5071678;28;20024;-62
2021/06/20 05:49:33;;;;;;;4.50;1.20;;;27.60;54.80;;;;;;5071552;28;20046;-62
2021/06/20 05:51:59;;;;;;;4.07;1.30;;;27.60;55.10;;;;;;5071969;28;20043;-61
2021/06/20 05:54:25;;;;;;;1.33;0.70;;;27.60;55.30;;;;;;5072980;28;20408;-59
2021/06/20 05:56:51;;;;;;;1.00;0.68;;;27.60;55.30;;;;;;5071401;28;20031;-60
2021/06/20 05:59:16;;;;;;;5.05;1.30;;;27.50;55.30;;;;;;5071314;28;20025;-62
2021/06/20 06:01:42;;;;;;;2.08;1.00;;;27.50;55.30;;;;;;5071705;28;20436;-61
2021/06/20 06:04:08;;;;;;;2.45;1.10;;;27.40;55.10;;;;;;5072869;28;20029;-62
2021/06/20 06:06:33;;;;;;;4.00;1.27;;;27.50;55.00;;;;;;5072779;28;20486;-62
2021/06/20 06:08:59;;;;;;;2.05;1.25;;;27.50;54.40;;;;;;5072802;28;20500;-61
2021/06/20 06:11:25;;;;;;;2.22;1.10;;;27.40;54.80;;;;;;5072803;28;20035;-63
2021/06/20 06:13:51;;;;;;;2.78;1.20;;;27.50;54.60;;;;;;5072771;28;20024;-63
2021/06/20 06:16:16;;;;;;;4.78;1.25;;;27.50;54.50;;;;;;5071466;28;20035;-60
2021/06/20 06:18:42;;;;;;;4.10;1.38;;;27.60;54.50;;;;;;5054080;28;20439;-60
2021/06/20 06:21:09;;;;;;;4.97;1.20;;;27.50;54.00;;;;;;5072668;28;20017;-60
2021/06/20 06:23:34;;;;;;;1.60;0.90;;;27.50;54.50;;;;;;5071205;28;20028;-62
2021/06/20 06:26:00;;;;;;;4.30;1.10;;;27.50;54.40;;;;;;5054332;28;20027;-62
2021/06/20 06:28:26;;;;;;;4.20;1.35;;;27.50;54.40;;;;;;5072470;28;20090;-61
2021/06/20 06:30:51;;;;;;;2.67;1.17;;;27.40;54.30;;;;;;5072497;28;20012;-59
2021/06/20 06:33:17;;;;;;;2.58;1.20;;;27.40;54.20;;;;;;5054202;28;20027;-60
2021/06/20 06:35:43;;;;;;;2.80;1.10;;;27.50;54.20;;;;;;5071150;28;20416;-60
2021/06/20 06:38:08;;;;;;;2.88;1.10;;;27.50;54.20;;;;;;5070679;28;20115;-60
2021/06/20 06:40:35;;;;;;;2.35;1.35;;;27.50;54.10;;;;;;5072197;28;20025;-60
2021/06/20 06:43:01;;;;;;;1.77;1.08;;;27.40;54.10;;;;;;5054203;28;20034;-61
2021/06/20 06:45:27;;;;;;;2.90;1.13;;;27.50;54.00;;;;;;5072300;28;20020;-60
2021/06/20 06:47:53;;;;;;;2.42;0.93;;;27.50;53.80;;;;;;5070911;28;20024;-60
2021/06/20 06:50:19;;;;;;;5.72;1.27;;;27.60;53.60;;;;;;5072096;28;20048;-62
2021/06/20 06:52:46;;;;;;;4.22;1.27;;;27.60;53.30;;;;;;5070985;28;20043;-62
2021/06/20 06:55:12;;;;;;;2.25;1.30;;;27.70;53.40;;;;;;5071882;28;20096;-62
2021/06/20 06:57:38;;;;;;;3.47;1.40;;;27.70;53.50;;;;;;5070750;28;20021;-63
2021/06/20 07:00:07;;;;;;;2.65;1.20;;;27.70;53.40;;;;;;5071804;28;20086;-60
2021/06/20 07:02:33;;;;;;;5.50;1.20;;;27.70;53.40;;;;;;5070673;28;20460;-62
2021/06/20 07:04:59;;;;;;;4.72;1.45;;;27.80;53.30;;;;;;5070911;28;20059;-61
2021/06/20 07:07:26;;;;;;;2.17;1.17;;;27.80;53.50;;;;;;5070731;28;20370;-61
2021/06/20 07:09:51;;;;;;;3.83;1.23;;;27.70;53.40;;;;;;5070774;28;20052;-61
2021/06/20 07:12:17;;;;;;;2.00;1.27;;;27.80;53.00;;;;;;5070730;28;20461;-64
2021/06/20 07:14:43;;;;;;;2.75;1.33;;;27.70;53.30;;;;;;5070366;28;20504;-61
2021/06/20 07:17:09;;;;;;;4.45;1.40;;;27.60;52.00;;;;;;5053582;28;20029;-62
2021/06/20 07:19:35;;;;;;;4.00;0.90;;;27.60;53.30;;;;;;5071382;28;20048;-61
2021/06/20 07:22:01;;;;;;;3.80;1.10;;;27.60;53.00;;;;;;5071763;28;20031;-63
2021/06/20 07:24:27;;;;;;;2.88;1.10;;;27.70;53.00;;;;;;5070463;28;20136;-63
2021/06/20 07:26:53;;;;;;;3.72;1.30;;;27.70;52.80;;;;;;5070477;28;20108;-61
2021/06/20 07:29:19;;;;;;;2.90;1.20;;;27.70;52.90;;;;;;5071712;28;20016;-61
2021/06/20 07:31:44;;;;;;;4.20;1.10;;;27.70;52.20;;;;;;5053372;28;20031;-63
2021/06/20 07:34:10;;;;;;;1.60;1.40;;;27.70;52.70;;;;;;5071652;28;20533;-63
2021/06/20 07:36:36;;;;;;;4.38;1.17;;;27.70;52.50;;;;;;5070016;28;20106;-62
2021/06/20 07:39:03;;;;;;;1.90;1.10;;;27.70;52.30;;;;;;5071506;28;20024;-63
2021/06/20 07:41:29;;;;;;;4.75;1.20;;;27.80;53.20;;;;;;5070316;28;20090;-62
2021/06/20 07:43:55;;;;;;;3.72;1.30;;;27.80;53.20;;;;;;5069879;28;20091;-61
2021/06/20 07:46:20;;;;;;;3.80;1.10;;;27.80;52.20;;;;;;5071389;28;20032;-62
2021/06/20 07:48:46;;;;;;;3.85;1.20;;;27.80;52.00;;;;;;5071403;28;20016;-62
2021/06/20 07:51:12;;;;;;;2.65;1.05;;;27.80;51.30;;;;;;5071344;28;20029;-64
2021/06/20 07:53:37;;;;;;;4.88;1.45;;;27.80;51.80;;;;;;5069685;28;20111;-61
2021/06/20 07:56:04;;;;;;;2.33;1.10;;;27.80;51.10;;;;;;5070374;28;20048;-60
2021/06/20 07:58:30;;;;;;;5.38;1.60;;;27.90;51.30;;;;;;5071489;28;20031;-62
2021/06/20 08:00:55;;;;;;;1.98;1.13;;;27.90;50.90;;;;;;5069854;28;20128;-60
2021/06/20 08:03:21;;;;;;;3.50;1.38;;;27.90;50.70;;;;;;5070302;28;20047;-62
2021/06/20 08:05:47;;;;;;;2.47;1.20;;;27.90;51.20;;;;;;5053809;28;20024;-61
2021/06/20 08:08:13;;;;;;;2.00;1.30;;;27.90;51.40;;;;;;5073858;28;20021;-62
2021/06/20 08:10:38;;;;;;;1.45;1.10;;;28.00;51.40;;;;;;5075093;28;20027;-61
2021/06/20 08:13:04;;;;;;;3.47;1.40;;;28.00;51.80;;;;;;5075086;28;20565;-61
2021/06/20 08:15:30;;;;;;;2.55;1.20;;;28.00;50.60;;;;;;5073534;28;20032;-61
2021/06/20 08:17:55;;;;;;;2.70;1.20;;;28.00;51.70;;;;;;5073674;28;20025;-59
2021/06/20 08:20:21;;;;;;;3.88;1.17;;;28.00;51.20;;;;;;5074247;28;20480;-62
2021/06/20 08:22:47;;;;;;;2.88;1.25;;;28.00;50.70;;;;;;5056484;28;20103;-62
2021/06/20 08:25:13;;;;;;;2.42;1.23;;;28.00;51.10;;;;;;5073058;28;20070;-64
2021/06/20 08:27:40;;;;;;;3.25;1.30;;;28.10;51.60;;;;;;5073511;28;20493;-63
2021/06/20 08:30:07;;;;;;;3.55;1.30;;;28.00;50.70;;;;;;5074773;28;20051;-64
2021/06/20 08:32:33;;;;;;;1.88;1.20;;;28.10;50.80;;;;;;5074647;28;20499;-63
2021/06/20 08:35:00;;;;;;;5.70;1.52;;;28.00;51.20;;;;;;5056424;28;20021;-62
2021/06/20 08:37:26;;;;;;;2.30;1.20;;;28.10;51.60;;;;;;5073205;28;20052;-63
2021/06/20 08:39:52;;;;;;;1.85;1.00;;;28.10;50.80;;;;;;5072703;28;20454;-61
2021/06/20 08:42:18;;;;;;;2.03;1.10;;;28.10;51.30;;;;;;5074487;28;20017;-62
2021/06/20 08:44:43;;;;;;;3.00;1.25;;;28.10;51.10;;;;;;5073053;28;20024;-62
2021/06/20 08:47:09;;;;;;;2.47;1.00;;;28.00;50.70;;;;;;5074334;28;20013;-61
2021/06/20 08:49:35;;;;;;;2.50;1.10;;;28.00;50.60;;;;;;5073021;28;20023;-60
2021/06/20 08:52:01;;;;;;;3.47;1.30;;;28.00;51.80;;;;;;5074166;28;20028;-63
2021/06/20 08:54:27;;;;;;;4.07;1.00;;;28.10;51.00;;;;;;5072872;28;20403;-63
2021/06/20 08:56:53;;;;;;;1.80;1.23;;;28.00;51.20;;;;;;5074169;28;20020;-62
2021/06/20 08:59:21;;;;;;;1.83;1.15;;;28.00;51.10;;;;;;5072636;28;20036;-61
2021/06/20 09:01:47;;;;;;;2.92;1.08;;;28.00;51.10;;;;;;5074118;28;20095;-62
2021/06/20 09:04:42;;;;;;;3.65;1.13;;;28.00;51.20;;;;;;5074030;28;20079;-62
2021/06/20 09:07:08;;;;;;;1.90;1.10;;;28.00;50.80;;;;;;5073950;28;20546;-61
2021/06/20 09:09:35;;;;;;;2.97;1.35;;;28.00;50.90;;;;;;5072362;28;20020;-64
2021/06/20 09:12:20;;;;;;;2.63;1.00;;;28.00;50.70;;;;;;5072673;28;20028;-59
2021/06/20 09:14:48;;;;;;;2.13;1.20;;;28.00;50.70;;;;;;5072257;28;20021;-59
2021/06/20 09:17:33;;;;;;;1.13;1.00;;;28.00;51.10;;;;;;5072172;28;20396;-61
2021/06/20 09:20:00;;;;;;;2.47;1.17;;;28.10;51.00;;;;;;5071881;28;20412;-59
2021/06/20 09:22:26;;;;;;;1.30;1.08;;;28.00;51.10;;;;;;5072108;28;20074;-59
2021/06/20 09:25:12;;;;;;;2.17;1.38;;;28.00;51.20;;;;;;5072068;28;20052;-62
2021/06/20 09:27:38;;;;;;;2.20;1.08;;;28.00;51.00;;;;;;5072359;28;20028;-62
2021/06/20 09:30:10;;;;;;;3.10;1.35;;;28.00;50.30;;;;;;5072431;28;20020;-62
2021/06/20 09:32:37;;;;;;;3.53;1.30;;;28.00;50.40;;;;;;5055398;28;20107;-61
2021/06/20 09:35:04;;;;;;;2.42;1.08;;;28.00;51.10;;;;;;5071635;28;20029;-62
2021/06/20 09:37:30;;;;;;;1.55;1.23;;;28.00;51.10;;;;;;5053744;28;20436;-62
2021/06/20 09:39:55;;;;;;;2.38;1.42;;;28.00;51.00;;;;;;5073284;28;20081;-63
2021/06/20 09:42:21;;;;;;;2.78;1.27;;;28.00;50.40;;;;;;5072332;28;20028;-64
2021/06/20 09:44:49;;;;;;;1.33;1.23;;;28.00;50.80;;;;;;5073201;28;20105;-66
2021/06/20 09:47:16;;;;;;;1.88;1.20;;;28.00;50.60;;;;;;5072899;28;20570;-60
2021/06/20 09:49:43;;;;;;;1.95;1.20;;;28.00;50.80;;;;;;5073094;28;20366;-61
2021/06/20 09:52:10;;;;;;;2.97;1.30;;;28.00;50.70;;;;;;5054111;28;20579;-63
2021/06/20 09:54:38;;;;;;;1.20;1.10;;;28.00;50.90;;;;;;5071765;28;20043;-63
2021/06/20 09:57:04;;;;;;;2.60;1.38;;;28.00;51.00;;;;;;5073158;28;20016;-63
2021/06/20 09:59:31;;;;;;;3.63;1.30;;;28.00;51.00;;;;;;5072884;28;20223;-61
2021/06/20 10:02:22;;;;;;;1.05;1.00;;;28.00;50.80;;;;;;5072820;28;20104;-63
2021/06/20 10:04:48;;;;;;;5.28;1.20;;;28.00;50.70;;;;;;5072749;28;20027;-63
2021/06/20 10:07:13;;;;;;;1.48;0.95;;;27.90;50.20;;;;;;5072833;28;20099;-63
2021/06/20 10:09:39;;;;;;;1.20;1.10;;;27.90;50.30;;;;;;5071509;28;20436;-63
2021/06/20 10:12:05;;;;;;;3.28;1.23;;;27.90;50.70;;;;;;5072595;28;20024;-62
2021/06/20 10:14:32;;;;;;;1.27;1.10;;;28.00;50.00;;;;;;5071256;28;20557;-63
2021/06/20 10:17:24;;;;;;;2.17;1.00;;;28.00;50.70;;;;;;5071423;28;20024;-59
2021/06/20 10:19:51;;;;;;;1.48;0.93;;;28.00;50.20;;;;;;5071845;28;20075;-61
2021/06/20 10:22:17;;;;;;;3.13;1.02;;;28.00;50.60;;;;;;5071247;28;20081;-58
2021/06/20 10:24:46;;;;;;;1.90;1.02;;;27.90;50.40;;;;;;5072429;28;20025;-59
2021/06/20 10:27:15;;;;;;;2.45;1.30;;;27.90;51.20;;;;;;5070826;28;20056;-60
2021/06/20 10:29:40;;;;;;;1.23;0.90;;;27.90;49.60;;;;;;5070248;28;20070;-60
2021/06/20 10:32:26;;;;;;;2.75;1.20;;;27.90;50.20;;;;;;5072285;28;20389;-59
2021/06/20 10:34:58;;;;;;;1.42;0.90;;;28.00;50.20;;;;;;5072291;28;20017;-60
2021/06/20 10:37:25;;;;;;;2.90;1.08;;;27.90;50.40;;;;;;5071874;28;20481;-63
2021/06/20 10:39:52;;;;;;;3.38;1.30;;;27.90;50.30;;;;;;5070866;28;20052;-60
2021/06/20 10:42:18;;;;;;;1.73;0.90;;;27.90;50.30;;;;;;5072235;28;20017;-64
2021/06/20 10:44:48;;;;;;;2.13;1.17;;;28.00;51.10;;;;;;5070996;28;20033;-61
2021/06/20 10:47:32;;;;;;;3.47;1.17;;;28.00;51.10;;;;;;5072151;28;20024;-58
2021/06/20 10:50:00;;;;;;;2.15;1.40;;;28.00;50.40;;;;;;5072198;28;20408;-62
2021/06/20 10:52:26;;;;;;;2.22;1.02;;;28.00;50.00;;;;;;5053894;28;20027;-63
2021/06/20 10:55:09;;;;;;;3.72;1.30;;;28.00;50.10;;;;;;5070538;28;20043;-58
2021/06/20 10:57:55;;;;;;;1.98;1.10;;;28.00;50.30;;;;;;5070304;28;20579;-59
2021/06/20 11:00:40;;;;;;;3.40;1.17;;;28.10;50.70;;;;;;5072094;28;20242;-62
2021/06/20 11:03:28;;;;;;;3.22;1.52;;;28.10;51.10;;;;;;5070352;28;20532;-63
2021/06/20 11:06:13;;;;;;;5.00;1.35;;;28.10;50.60;;;;;;5072014;28;20021;-63
2021/06/20 11:08:42;;;;;;;2.75;1.23;;;28.00;51.10;;;;;;5070347;28;20502;-62
2021/06/20 11:11:10;;;;;;;4.72;1.80;;;28.10;50.70;;;;;;5071812;28;20024;-61
2021/06/20 11:13:37;;;;;;;1.65;1.52;;;28.10;50.20;;;;;;5071861;28;20029;-65
2021/06/20 11:16:05;;;;;;;4.22;2.00;;;28.00;49.30;;;;;;5071821;28;20146;-63
2021/06/20 11:18:31;;;;;;;2.95;1.75;;;28.00;48.80;;;;;;5071630;28;20103;-64
2021/06/20 11:20:57;;;;;;;2.72;2.00;;;28.00;48.30;;;;;;5070572;28;20104;-63
2021/06/20 11:23:23;;;;;;;2.85;1.77;;;28.00;48.00;;;;;;5071779;28;20025;-64
2021/06/20 11:26:08;;;;;;;4.30;1.80;;;28.00;47.40;;;;;;5071741;28;20017;-64
2021/06/20 11:28:34;;;;;;;2.92;2.05;;;28.00;47.40;;;;;;5071892;28;20082;-64
2021/06/20 11:31:06;;;;;;;3.85;1.60;;;28.00;47.10;;;;;;5070256;28;20020;-64
2021/06/20 11:33:32;;;;;;;;;;;28.10;47.20;;;;;;5071150;28;20024;-65
2021/06/20 11:35:58;;;;;;;2.85;1.67;;;28.00;47.20;;;;;;5070199;28;19953;-67
2021/06/20 11:38:28;;;;;;;3.88;2.17;;;28.00;47.30;;;;;;5070363;28;20051;-65
2021/06/20 11:40:54;;;;;;;4.28;2.13;;;28.00;47.10;;;;;;5072659;28;20593;-63
2021/06/20 11:43:20;;;;;;;2.35;2.00;;;28.00;47.00;;;;;;5074555;28;20021;-64
2021/06/20 11:45:45;;;;;;;4.38;1.98;;;28.00;46.80;;;;;;5074447;28;20388;-64
2021/06/20 11:48:11;;;;;;;4.97;2.10;;;28.00;46.80;;;;;;5057275;28;20020;-63
2021/06/20 11:50:38;;;;;;;3.97;2.00;;;28.00;47.20;;;;;;5057313;28;20020;-62
2021/06/20 11:53:06;;;;;;;2.70;1.80;;;28.00;47.10;;;;;;5073879;28;20028;-65
2021/06/20 11:55:36;;;;;;;3.13;2.00;;;28.00;47.10;;;;;;5075461;28;20032;-64
2021/06/20 11:58:04;;;;;;;3.28;1.88;;;28.00;47.00;;;;;;5057550;28;20051;-63
2021/06/20 12:00:30;;;;;;;3.80;2.28;;;28.00;47.40;;;;;;5073663;28;20523;-63
2021/06/20 12:03:01;;;;;;;2.50;1.95;;;28.00;47.70;;;;;;5074082;28;20029;-62
2021/06/20 12:05:27;;;;;;;5.20;2.20;;;28.00;47.70;;;;;;5074076;28;20508;-62
2021/06/20 12:07:53;;;;;;;5.43;2.30;;;28.00;47.60;;;;;;5074013;28;20028;-64
2021/06/20 12:10:19;;;;;;;3.97;2.13;;;28.00;47.50;;;;;;5073911;28;20036;-65
2021/06/20 12:12:45;;;;;;;3.15;2.20;;;28.00;47.70;;;;;;5073960;28;20028;-64
2021/06/20 12:15:12;;;;;;;3.65;2.22;;;28.00;47.80;;;;;;5074748;28;20032;-64
2021/06/20 12:17:38;;;;;;;3.92;2.15;;;28.00;47.70;;;;;;5073869;28;20456;-63
2021/06/20 12:20:06;;;;;;;3.65;1.95;;;28.00;47.60;;;;;;5056293;28;20102;-64
2021/06/20 12:22:31;;;;;;;3.30;1.70;;;28.00;47.70;;;;;;5074765;28;20066;-64
2021/06/20 12:25:00;;;;;;;4.25;2.00;;;28.00;47.20;;;;;;5056625;28;20021;-63
2021/06/20 12:27:35;;;;;;;3.78;2.10;;;28.00;46.50;;;;;;5073527;28;20047;-62
2021/06/20 12:30:13;;;;;;;3.40;1.90;;;28.00;46.60;;;;;;5074893;28;20028;-64
2021/06/20 12:32:39;;;;;;;4.72;2.05;;;28.00;46.20;;;;;;5074601;28;20033;-62
2021/06/20 12:35:05;;;;;;;3.90;2.30;;;27.90;46.00;;;;;;5073341;28;20092;-61
2021/06/20 12:37:52;;;;;;;3.22;1.85;;;28.00;45.80;;;;;;5074477;28;20429;-63
2021/06/20 12:40:18;;;;;;;2.35;1.92;;;28.00;45.70;;;;;;5074619;28;20025;-63
2021/06/20 12:42:49;;;;;;;3.03;1.90;;;27.90;46.00;;;;;;5074700;28;20500;-60
2021/06/20 12:45:19;;;;;;;3.33;2.20;;;28.00;45.30;;;;;;5074763;28;20108;-62
2021/06/20 12:47:44;;;;;;;2.15;1.88;;;27.90;45.30;;;;;;5074507;28;20056;-63
2021/06/20 12:50:10;;;;;;;2.47;2.00;;;27.90;45.10;;;;;;5073469;28;20067;-62